createdAt,value
2023-04-19T00:04:04.829Z,88.37
2023-04-19T00:08:22.631Z,88.27
2023-04-19T00:12:40.342Z,88.27
2023-04-19T00:16:57.975Z,88.28
2023-04-19T00:21:15.913Z,88.40
2023-04-19T00:25:36.333Z,88.65
2023-04-19T00:29:54.006Z,88.93
2023-04-19T00:34:11.566Z,89.09
2023-04-19T00:38:29.260Z,89.09
2023-04-19T00:42:46.766Z,89.05
2023-04-19T00:47:05.437Z,88.87
2023-04-19T00:51:23.433Z,88.97
2023-04-19T00:55:41.197Z,89.10
2023-04-19T00:59:59.127Z,89.15
2023-04-19T01:04:17.589Z,89.42
2023-04-19T01:08:35.367Z,89.44
2023-04-19T01:12:53.193Z,89.39
2023-04-19T01:17:11.608Z,89.44
2023-04-19T01:21:32.831Z,89.32
2023-04-19T01:25:50.428Z,89.34
2023-04-19T01:30:09.025Z,89.34
2023-04-19T01:34:26.537Z,89.27
2023-04-19T01:38:44.274Z,89.16
2023-04-19T01:43:01.742Z,89.05
2023-04-19T01:47:20.177Z,89.00
2023-04-19T01:51:39.273Z,88.91
2023-04-19T01:55:56.753Z,88.87
2023-04-19T02:00:15.525Z,88.87
2023-04-19T02:04:34.861Z,89.02
2023-04-19T02:08:52.855Z,89.02
2023-04-19T02:13:10.504Z,89.11
2023-04-19T02:17:28.989Z,89.13
2023-04-19T02:21:46.695Z,89.18
2023-04-19T02:26:04.386Z,89.24
2023-04-19T02:30:22.165Z,89.12
2023-04-19T02:34:40.062Z,89.08
2023-04-19T02:38:59.631Z,88.89
2023-04-19T02:43:17.155Z,88.70
2023-04-19T02:47:34.829Z,88.55
2023-04-19T02:51:53.171Z,88.35
2023-04-19T02:56:10.702Z,88.17
2023-04-19T03:00:28.468Z,87.92
2023-04-19T03:04:47.437Z,87.65
2023-04-19T03:09:05.067Z,87.61
2023-04-19T03:13:22.584Z,87.47
2023-04-19T03:17:40.362Z,87.36
2023-04-19T03:21:57.875Z,87.39
2023-04-19T03:26:15.570Z,87.88
2023-04-19T03:30:33.112Z,88.31
2023-04-19T03:34:50.914Z,88.42
2023-04-19T03:39:08.494Z,88.19
2023-04-19T03:43:26.250Z,88.22
2023-04-19T03:47:43.795Z,88.36
2023-04-19T03:52:01.439Z,88.45
2023-04-19T03:56:18.965Z,88.49
2023-04-19T04:00:37.466Z,88.40
2023-04-19T04:04:55.710Z,88.23
2023-04-19T04:09:13.236Z,88.15
2023-04-19T04:13:30.960Z,87.82
2023-04-19T04:17:48.501Z,87.29
2023-04-19T04:22:07.466Z,87.14
2023-04-19T04:26:25.710Z,86.89
2023-04-19T04:30:43.452Z,86.84
2023-04-19T04:35:00.977Z,86.85
2023-04-19T04:39:19.118Z,86.97
2023-04-19T04:43:36.668Z,87.62
2023-04-19T04:47:54.355Z,87.95
2023-04-19T04:52:12.108Z,88.15
2023-04-19T04:56:31.296Z,88.16
2023-04-19T05:00:49.262Z,87.83
2023-04-19T05:05:07.404Z,87.51
2023-04-19T05:09:25.129Z,87.38
2023-04-19T05:13:42.828Z,87.00
2023-04-19T05:18:00.362Z,86.83
2023-04-19T05:22:18.313Z,86.46
2023-04-19T05:26:36.097Z,85.72
2023-04-19T05:30:53.822Z,85.89
2023-04-19T05:35:11.611Z,85.64
2023-04-19T05:39:29.582Z,85.56
2023-04-19T05:43:47.134Z,84.12
2023-04-19T05:48:05.335Z,84.42
2023-04-19T05:52:22.893Z,84.27
2023-04-19T05:56:40.854Z,83.54
2023-04-19T06:00:58.439Z,83.72
2023-04-19T06:05:16.730Z,83.16
2023-04-19T06:09:34.658Z,81.92
2023-04-19T06:13:52.364Z,81.01
2023-04-19T06:18:18.970Z,78.32
2023-04-19T06:22:45.218Z,78.19
2023-04-19T06:27:02.944Z,79.15
2023-04-19T06:31:20.688Z,79.42
2023-04-19T06:35:38.610Z,78.43
2023-04-19T06:39:56.114Z,79.70
2023-04-19T06:44:14.246Z,79.60
2023-04-19T06:48:34.496Z,80.20
2023-04-19T06:52:52.257Z,80.07
2023-04-19T06:57:09.917Z,80.54
2023-04-19T07:01:27.699Z,79.55
2023-04-19T07:05:45.688Z,79.97
2023-04-19T07:10:03.666Z,78.97
2023-04-19T07:14:21.268Z,78.94
2023-04-19T07:18:39.106Z,77.57
2023-04-19T07:22:56.612Z,78.90
2023-04-19T07:27:15.031Z,78.47
2023-04-19T07:31:32.678Z,77.60
2023-04-19T07:35:50.372Z,78.15
2023-04-19T07:40:08.704Z,76.61
2023-04-19T07:44:26.324Z,75.48
2023-04-19T07:48:43.896Z,76.02
2023-04-19T07:53:01.683Z,76.20
2023-04-19T07:57:19.224Z,75.80
2023-04-19T08:01:37.492Z,74.73
2023-04-19T08:05:55.314Z,72.48
2023-04-19T08:10:13.780Z,72.16
2023-04-19T08:14:40.493Z,72.76
2023-04-19T08:19:01.744Z,73.24
2023-04-19T08:23:25.781Z,72.29
2023-04-19T08:27:47.227Z,69.47
2023-04-19T08:32:06.744Z,72.82
2023-04-19T08:36:35.953Z,70.61
2023-04-19T08:40:55.612Z,69.77
2023-04-19T08:49:41.373Z,72.07
2023-04-19T08:54:04.177Z,72.31
2023-04-19T08:58:32.869Z,71.83
2023-04-19T09:02:59.526Z,70.85
2023-04-19T09:07:28.651Z,71.14
2023-04-19T09:11:46.422Z,70.47
2023-04-19T09:16:05.781Z,70.21
2023-04-19T09:20:39.936Z,70.66
2023-04-19T09:29:21.515Z,70.36
2023-04-19T09:33:42.532Z,70.88
2023-04-19T09:42:42.229Z,71.62
2023-04-19T09:46:59.870Z,70.78
2023-04-19T09:51:18.010Z,71.76
2023-04-19T09:55:48.887Z,73.21
2023-04-19T10:00:18.612Z,74.10
2023-04-19T10:04:54.609Z,74.21
2023-04-19T10:09:15.939Z,75.23
2023-04-19T10:13:33.765Z,75.05
2023-04-19T10:17:53.173Z,75.38
2023-04-19T10:22:11.772Z,75.33
2023-04-19T10:26:29.395Z,74.48
2023-04-19T10:30:56.003Z,74.31
2023-04-19T10:35:31.764Z,77.03
2023-04-19T10:39:49.274Z,78.44
2023-04-19T10:44:12.410Z,79.41
2023-04-19T10:48:30.890Z,79.97
2023-04-19T10:52:48.553Z,80.09
2023-04-19T10:57:11.660Z,79.82
2023-04-19T11:01:43.547Z,79.45
2023-04-19T11:06:21.547Z,79.15
2023-04-19T11:10:39.473Z,79.09
2023-04-19T11:15:00.157Z,78.91
2023-04-19T11:19:19.271Z,78.84
2023-04-19T11:23:37.396Z,79.05
2023-04-19T11:27:55.929Z,79.01
2023-04-19T11:32:13.638Z,79.07
2023-04-19T11:36:37.023Z,79.45
2023-04-19T11:41:02.441Z,79.83
2023-04-19T11:45:46.674Z,78.99
2023-04-19T11:50:43.083Z,78.84
2023-04-19T11:55:18.736Z,77.82
2023-04-19T11:59:37.422Z,77.13
2023-04-19T12:03:59.071Z,76.04
2023-04-19T12:08:16.950Z,74.88
2023-04-19T12:12:34.595Z,72.01
2023-04-19T12:17:12.533Z,73.34
2023-04-19T12:21:34.326Z,73.30
2023-04-19T12:25:51.985Z,73.21
2023-04-19T12:30:10.130Z,71.24
2023-04-19T12:34:28.279Z,72.25
2023-04-19T12:38:46.017Z,73.01
2023-04-19T12:43:03.882Z,73.06
2023-04-19T12:47:21.443Z,72.44
2023-04-19T12:51:39.172Z,72.68
2023-04-19T12:55:56.690Z,74.00
2023-04-19T13:00:14.845Z,74.87
2023-04-19T13:04:32.531Z,74.78
2023-04-19T13:08:50.970Z,74.61
2023-04-19T13:13:08.764Z,74.22
2023-04-19T13:17:26.426Z,74.96
2023-04-19T13:21:44.893Z,76.39
2023-04-19T13:26:02.721Z,76.76
2023-04-19T13:30:20.426Z,76.21
2023-04-19T13:34:40.550Z,75.75
2023-04-19T13:38:58.224Z,76.21
2023-04-19T13:43:15.864Z,76.41
2023-04-19T13:47:33.380Z,78.35
2023-04-19T13:51:51.207Z,78.41
2023-04-19T13:56:11.601Z,78.29
2023-04-19T14:00:29.399Z,78.68
2023-04-19T14:04:47.063Z,79.43
2023-04-19T14:09:04.781Z,79.94
2023-04-19T14:13:22.150Z,79.59
2023-04-19T14:17:39.920Z,79.01
2023-04-19T14:21:57.690Z,79.08
2023-04-19T14:26:15.401Z,77.32
2023-04-19T14:30:33.105Z,78.04
2023-04-19T14:34:51.715Z,80.50
2023-04-19T14:39:09.738Z,80.14
2023-04-19T14:43:27.368Z,79.75
2023-04-19T14:47:45.760Z,78.66
2023-04-19T14:52:04.940Z,77.90
2023-04-19T14:56:22.712Z,75.35
2023-04-19T15:00:40.279Z,76.51
2023-04-19T15:04:58.239Z,75.38
2023-04-19T15:09:16.586Z,75.21
2023-04-19T15:13:35.892Z,75.02
2023-04-19T15:17:53.530Z,75.87
2023-04-19T15:22:11.557Z,74.59
2023-04-19T15:26:28.959Z,73.22
2023-04-19T15:31:01.706Z,70.76
2023-04-19T15:35:19.350Z,68.80
2023-04-19T15:39:36.985Z,69.85
2023-04-19T15:43:55.046Z,70.97
2023-04-19T15:48:12.911Z,72.38
2023-04-19T15:52:30.832Z,73.44
2023-04-19T15:56:48.552Z,74.84
2023-04-19T16:01:12.356Z,75.76
2023-04-19T16:05:30.921Z,76.30
2023-04-19T16:09:48.446Z,76.92
2023-04-19T16:14:06.467Z,77.24
2023-04-19T16:18:24.031Z,75.54
2023-04-19T16:22:41.695Z,75.91
2023-04-19T16:26:59.205Z,76.18
2023-04-19T16:31:16.887Z,76.90
2023-04-19T16:35:34.574Z,77.12
2023-04-19T16:39:52.285Z,77.89
2023-04-19T16:44:10.071Z,78.27
2023-04-19T16:48:27.808Z,78.68
2023-04-19T16:52:45.348Z,78.82
2023-04-19T16:57:03.361Z,79.02
2023-04-19T17:01:20.889Z,79.04
2023-04-19T17:05:38.545Z,79.47
2023-04-19T17:09:56.658Z,79.57
2023-04-19T17:14:14.720Z,79.96
2023-04-19T17:18:32.649Z,79.77
2023-04-19T17:22:50.191Z,80.33
2023-04-19T17:27:07.952Z,80.57
2023-04-19T17:31:25.593Z,80.98
2023-04-19T17:35:43.461Z,81.03
2023-04-19T17:40:02.158Z,81.45
2023-04-19T17:44:19.835Z,81.88
2023-04-19T17:48:37.582Z,82.09
2023-04-19T17:52:55.347Z,82.62
2023-04-19T17:57:13.067Z,82.92
2023-04-19T18:01:32.184Z,83.20
2023-04-19T18:05:49.905Z,83.04
2023-04-19T18:10:08.067Z,82.92
2023-04-19T18:14:25.941Z,82.63
2023-04-19T18:18:43.680Z,82.92
2023-04-19T18:23:01.979Z,83.09
2023-04-19T18:27:19.793Z,83.92
2023-04-19T18:31:37.630Z,84.38
2023-04-19T18:35:55.225Z,84.29
2023-04-19T18:40:13.276Z,84.11
2023-04-19T18:48:51.415Z,83.95
2023-04-19T18:53:08.945Z,83.99
2023-04-19T18:57:27.868Z,83.97
2023-04-19T19:01:46.009Z,84.28
2023-04-19T19:06:04.309Z,84.03
2023-04-19T19:10:26.689Z,84.07
2023-04-19T19:14:59.790Z,84.04
2023-04-19T19:19:17.822Z,84.24
2023-04-19T19:23:38.404Z,85.23
2023-04-19T19:28:06.200Z,86.30
2023-04-19T19:32:24.715Z,87.01
2023-04-19T19:36:43.889Z,87.55
2023-04-19T19:45:29.772Z,88.12
2023-04-19T19:50:31.358Z,88.57
2023-04-19T19:54:27.780Z,88.74
2023-04-19T19:58:50.038Z,88.94
2023-04-19T20:03:09.396Z,89.04
2023-04-19T20:07:42.314Z,88.98
2023-04-19T20:12:05.181Z,88.53
2023-04-19T20:16:23.615Z,88.54
2023-04-19T20:20:41.153Z,88.46
2023-04-19T20:25:00.034Z,88.43
2023-04-19T20:29:17.873Z,88.31
2023-04-19T20:33:35.699Z,88.25
2023-04-19T20:37:54.671Z,87.94
2023-04-19T20:42:12.280Z,87.93
2023-04-19T20:46:30.102Z,87.64
2023-04-19T20:50:47.987Z,87.83
2023-04-19T20:55:06.258Z,88.50
2023-04-19T20:59:23.809Z,89.00
2023-04-19T21:03:41.623Z,89.17
2023-04-19T21:07:59.531Z,89.29
2023-04-19T21:12:18.188Z,89.18
2023-04-19T21:16:35.839Z,88.72
2023-04-19T21:20:53.453Z,88.21
2023-04-19T21:25:12.697Z,87.95
2023-04-19T21:29:30.352Z,87.51
2023-04-19T21:33:47.943Z,87.03
2023-04-19T21:38:06.149Z,86.96
2023-04-19T21:42:23.884Z,86.86
2023-04-19T21:46:41.495Z,86.53
2023-04-19T21:51:01.561Z,86.58
2023-04-19T21:55:19.148Z,86.84
2023-04-19T21:59:38.026Z,86.59
2023-04-19T22:03:57.319Z,86.54
2023-04-19T22:08:18.269Z,86.71
2023-04-19T22:12:42.557Z,87.14
2023-04-19T22:17:06.522Z,87.21
2023-04-19T22:21:25.073Z,87.45
2023-04-19T22:25:42.780Z,87.55
2023-04-19T22:30:00.496Z,87.25
2023-04-19T22:34:18.127Z,87.03
2023-04-19T22:38:35.933Z,87.00
2023-04-19T22:42:53.448Z,86.75
2023-04-19T22:47:12.260Z,86.37
2023-04-19T22:51:30.528Z,86.49
2023-04-19T22:55:48.289Z,86.43
2023-04-19T23:00:07.199Z,86.40
2023-04-19T23:04:24.593Z,86.52
2023-04-19T23:08:42.232Z,86.59
2023-04-19T23:12:59.728Z,86.58
2023-04-19T23:17:18.452Z,86.75
2023-04-19T23:21:36.380Z,86.91
2023-04-19T23:25:53.917Z,86.81
2023-04-19T23:30:12.104Z,87.30
2023-04-19T23:34:29.771Z,87.85
2023-04-19T23:38:47.498Z,88.38
2023-04-19T23:43:05.142Z,88.64
2023-04-19T23:47:23.352Z,89.03
2023-04-19T23:51:41.121Z,89.57
2023-04-19T23:55:58.710Z,89.83
